<?xml version="1.0" encoding="UTF-8" standalone="no" ?>
<gpx xmlns="http://www.topografix.com/GPX/1/1" xmlns:xsi="http://www.w3.org/2001/XMLSchema-instance" xsi:schemaLocation="http://www.topografix.com/GPX/1/1 http://www.topografix.com/GPX/1/1/gpx.xsd" version="1.1" creator="VisuGPX - https://www.visugpx.com">
  <metadata>
    <name>jeudi_21_septembre_2023-17669801-1695224765-783</name>
  </metadata>
  <trk>
    <name><![CDATA[jeudi 21 septembre 2023-17669801]]></name>
    <extensions>
      <line xmlns="http://www.topografix.com/GPX/gpx_style/0/2">
        <color>0000FF</color>
        <width>4</width>
      </line>
    </extensions>
    <trkseg>
      <trkpt lat="48.54782" lon="-0.41998">
        <ele>161</ele>
        <time>2023-09-20T15:46:05Z</time>
      </trkpt>
      <trkpt lat="48.54719" lon="-0.42015">
        <ele>160</ele>
        <time>2023-09-20T15:46:16Z</time>
      </trkpt>
      <trkpt lat="48.54689" lon="-0.42021">
        <ele>160</ele>
        <time>2023-09-20T15:46:22Z</time>
      </trkpt>
      <trkpt lat="48.54666" lon="-0.42022">
        <ele>159</ele>
        <time>2023-09-20T15:46:26Z</time>
      </trkpt>
      <trkpt lat="48.54545" lon="-0.42009">
        <ele>157</ele>
        <time>2023-09-20T15:46:47Z</time>
      </trkpt>
      <trkpt lat="48.54538" lon="-0.42004">
        <ele>157</ele>
        <time>2023-09-20T15:46:49Z</time>
      </trkpt>
      <trkpt lat="48.54535" lon="-0.41985">
        <ele>157</ele>
        <time>2023-09-20T15:46:51Z</time>
      </trkpt>
      <trkpt lat="48.54532" lon="-0.41923">
        <ele>157</ele>
        <time>2023-09-20T15:46:58Z</time>
      </trkpt>
      <trkpt lat="48.54528" lon="-0.41897">
        <ele>158</ele>
        <time>2023-09-20T15:47:02Z</time>
      </trkpt>
      <trkpt lat="48.54518" lon="-0.41865">
        <ele>158</ele>
        <time>2023-09-20T15:47:06Z</time>
      </trkpt>
      <trkpt lat="48.54514" lon="-0.41854">
        <ele>159</ele>
        <time>2023-09-20T15:47:07Z</time>
      </trkpt>
      <trkpt lat="48.54506" lon="-0.41842">
        <ele>159</ele>
        <time>2023-09-20T15:47:09Z</time>
      </trkpt>
      <trkpt lat="48.54463" lon="-0.41793">
        <ele>157</ele>
        <time>2023-09-20T15:47:19Z</time>
      </trkpt>
      <trkpt lat="48.54459" lon="-0.41784">
        <ele>157</ele>
        <time>2023-09-20T15:47:20Z</time>
      </trkpt>
      <trkpt lat="48.54457" lon="-0.41769">
        <ele>156</ele>
        <time>2023-09-20T15:47:22Z</time>
      </trkpt>
      <trkpt lat="48.54466" lon="-0.41663">
        <ele>158</ele>
        <time>2023-09-20T15:47:34Z</time>
      </trkpt>
      <trkpt lat="48.54465" lon="-0.41657">
        <ele>158</ele>
        <time>2023-09-20T15:47:35Z</time>
      </trkpt>
      <trkpt lat="48.5446" lon="-0.41653">
        <ele>158</ele>
        <time>2023-09-20T15:47:36Z</time>
      </trkpt>
      <trkpt lat="48.54443" lon="-0.41643">
        <ele>157</ele>
        <time>2023-09-20T15:47:39Z</time>
      </trkpt>
      <trkpt lat="48.54393" lon="-0.41603">
        <ele>155</ele>
        <time>2023-09-20T15:47:50Z</time>
      </trkpt>
      <trkpt lat="48.54366" lon="-0.41604">
        <ele>154</ele>
        <time>2023-09-20T15:47:54Z</time>
      </trkpt>
      <trkpt lat="48.54363" lon="-0.41601">
        <ele>154</ele>
        <time>2023-09-20T15:47:55Z</time>
      </trkpt>
      <trkpt lat="48.54319" lon="-0.41562">
        <ele>154</ele>
        <time>2023-09-20T15:48:04Z</time>
      </trkpt>
      <trkpt lat="48.54267" lon="-0.41538">
        <ele>151</ele>
        <time>2023-09-20T15:48:14Z</time>
      </trkpt>
      <trkpt lat="48.54232" lon="-0.41504">
        <ele>150</ele>
        <time>2023-09-20T15:48:21Z</time>
      </trkpt>
      <trkpt lat="48.54206" lon="-0.41472">
        <ele>150</ele>
        <time>2023-09-20T15:48:27Z</time>
      </trkpt>
      <trkpt lat="48.54188" lon="-0.41458">
        <ele>151</ele>
        <time>2023-09-20T15:48:31Z</time>
      </trkpt>
      <trkpt lat="48.54174" lon="-0.41458">
        <ele>150</ele>
        <time>2023-09-20T15:48:33Z</time>
      </trkpt>
      <trkpt lat="48.54143" lon="-0.41467">
        <ele>149</ele>
        <time>2023-09-20T15:48:39Z</time>
      </trkpt>
      <trkpt lat="48.54131" lon="-0.41467">
        <ele>149</ele>
        <time>2023-09-20T15:48:41Z</time>
      </trkpt>
      <trkpt lat="48.54103" lon="-0.41458">
        <ele>150</ele>
        <time>2023-09-20T15:48:46Z</time>
      </trkpt>
      <trkpt lat="48.54094" lon="-0.41454">
        <ele>150</ele>
        <time>2023-09-20T15:48:48Z</time>
      </trkpt>
      <trkpt lat="48.54057" lon="-0.41471">
        <ele>149</ele>
        <time>2023-09-20T15:48:55Z</time>
      </trkpt>
      <trkpt lat="48.54049" lon="-0.41471">
        <ele>149</ele>
        <time>2023-09-20T15:48:56Z</time>
      </trkpt>
      <trkpt lat="48.54047" lon="-0.4148">
        <ele>149</ele>
        <time>2023-09-20T15:48:57Z</time>
      </trkpt>
      <trkpt lat="48.54049" lon="-0.41471">
        <ele>149</ele>
        <time>2023-09-20T15:48:58Z</time>
      </trkpt>
      <trkpt lat="48.54043" lon="-0.41462">
        <ele>150</ele>
        <time>2023-09-20T15:49:00Z</time>
      </trkpt>
      <trkpt lat="48.54034" lon="-0.41442">
        <ele>151</ele>
        <time>2023-09-20T15:49:03Z</time>
      </trkpt>
      <trkpt lat="48.54001" lon="-0.41398">
        <ele>153</ele>
        <time>2023-09-20T15:49:10Z</time>
      </trkpt>
      <trkpt lat="48.5396" lon="-0.41365">
        <ele>155</ele>
        <time>2023-09-20T15:49:19Z</time>
      </trkpt>
      <trkpt lat="48.53941" lon="-0.41347">
        <ele>155</ele>
        <time>2023-09-20T15:49:23Z</time>
      </trkpt>
      <trkpt lat="48.53931" lon="-0.41328">
        <ele>156</ele>
        <time>2023-09-20T15:49:26Z</time>
      </trkpt>
      <trkpt lat="48.53912" lon="-0.41169">
        <ele>160</ele>
        <time>2023-09-20T15:49:45Z</time>
      </trkpt>
      <trkpt lat="48.54011" lon="-0.41195">
        <ele>159</ele>
        <time>2023-09-20T15:50:02Z</time>
      </trkpt>
      <trkpt lat="48.54098" lon="-0.4118">
        <ele>161</ele>
        <time>2023-09-20T15:50:18Z</time>
      </trkpt>
      <trkpt lat="48.54176" lon="-0.41113">
        <ele>163</ele>
        <time>2023-09-20T15:50:34Z</time>
      </trkpt>
      <trkpt lat="48.54272" lon="-0.40931">
        <ele>163</ele>
        <time>2023-09-20T15:51:01Z</time>
      </trkpt>
      <trkpt lat="48.54364" lon="-0.40735">
        <ele>167</ele>
        <time>2023-09-20T15:51:30Z</time>
      </trkpt>
      <trkpt lat="48.54484" lon="-0.40625">
        <ele>172</ele>
        <time>2023-09-20T15:51:55Z</time>
      </trkpt>
      <trkpt lat="48.54647" lon="-0.40476">
        <ele>180</ele>
        <time>2023-09-20T15:52:29Z</time>
      </trkpt>
      <trkpt lat="48.54774" lon="-0.40266">
        <ele>184</ele>
        <time>2023-09-20T15:53:02Z</time>
      </trkpt>
      <trkpt lat="48.54864" lon="-0.40269">
        <ele>188</ele>
        <time>2023-09-20T15:53:18Z</time>
      </trkpt>
      <trkpt lat="48.54965" lon="-0.40308">
        <ele>189</ele>
        <time>2023-09-20T15:53:37Z</time>
      </trkpt>
      <trkpt lat="48.55158" lon="-0.40369">
        <ele>197</ele>
        <time>2023-09-20T15:54:12Z</time>
      </trkpt>
      <trkpt lat="48.55316" lon="-0.40458">
        <ele>199</ele>
        <time>2023-09-20T15:54:42Z</time>
      </trkpt>
      <trkpt lat="48.55417" lon="-0.4065">
        <ele>200</ele>
        <time>2023-09-20T15:55:11Z</time>
      </trkpt>
      <trkpt lat="48.55504" lon="-0.40636">
        <ele>199</ele>
        <time>2023-09-20T15:55:26Z</time>
      </trkpt>
      <trkpt lat="48.55622" lon="-0.40622">
        <ele>205</ele>
        <time>2023-09-20T15:55:47Z</time>
      </trkpt>
      <trkpt lat="48.55613" lon="-0.407">
        <ele>204</ele>
        <time>2023-09-20T15:55:57Z</time>
      </trkpt>
      <trkpt lat="48.55646" lon="-0.4075">
        <ele>206</ele>
        <time>2023-09-20T15:56:05Z</time>
      </trkpt>
      <trkpt lat="48.55674" lon="-0.40629">
        <ele>209</ele>
        <time>2023-09-20T15:56:20Z</time>
      </trkpt>
      <trkpt lat="48.55752" lon="-0.40636">
        <ele>215</ele>
        <time>2023-09-20T15:56:34Z</time>
      </trkpt>
      <trkpt lat="48.55789" lon="-0.40525">
        <ele>214</ele>
        <time>2023-09-20T15:56:49Z</time>
      </trkpt>
      <trkpt lat="48.55905" lon="-0.40582">
        <ele>221</ele>
        <time>2023-09-20T15:57:10Z</time>
      </trkpt>
      <trkpt lat="48.55865" lon="-0.40839">
        <ele>219</ele>
        <time>2023-09-20T15:57:41Z</time>
      </trkpt>
      <trkpt lat="48.56171" lon="-0.41002">
        <ele>225</ele>
        <time>2023-09-20T15:58:39Z</time>
      </trkpt>
      <trkpt lat="48.56065" lon="-0.41508">
        <ele>207</ele>
        <time>2023-09-20T15:59:42Z</time>
      </trkpt>
      <trkpt lat="48.56188" lon="-0.41543">
        <ele>203</ele>
        <time>2023-09-20T16:00:04Z</time>
      </trkpt>
      <trkpt lat="48.56385" lon="-0.41401">
        <ele>205</ele>
        <time>2023-09-20T16:00:43Z</time>
      </trkpt>
      <trkpt lat="48.5648" lon="-0.41248">
        <ele>198</ele>
        <time>2023-09-20T16:01:07Z</time>
      </trkpt>
      <trkpt lat="48.56607" lon="-0.40988">
        <ele>194</ele>
        <time>2023-09-20T16:01:45Z</time>
      </trkpt>
      <trkpt lat="48.56736" lon="-0.40675">
        <ele>210</ele>
        <time>2023-09-20T16:02:29Z</time>
      </trkpt>
      <trkpt lat="48.56849" lon="-0.40397">
        <ele>205</ele>
        <time>2023-09-20T16:03:07Z</time>
      </trkpt>
      <trkpt lat="48.56962" lon="-0.40123">
        <ele>201</ele>
        <time>2023-09-20T16:03:45Z</time>
      </trkpt>
      <trkpt lat="48.56993" lon="-0.40034">
        <ele>201</ele>
        <time>2023-09-20T16:03:57Z</time>
      </trkpt>
      <trkpt lat="48.56814" lon="-0.3971">
        <ele>198</ele>
        <time>2023-09-20T16:04:47Z</time>
      </trkpt>
      <trkpt lat="48.56656" lon="-0.3991">
        <ele>196</ele>
        <time>2023-09-20T16:05:23Z</time>
      </trkpt>
      <trkpt lat="48.56468" lon="-0.4013">
        <ele>212</ele>
        <time>2023-09-20T16:06:06Z</time>
      </trkpt>
      <trkpt lat="48.56147" lon="-0.39565">
        <ele>200</ele>
        <time>2023-09-20T16:07:33Z</time>
      </trkpt>
      <trkpt lat="48.5632" lon="-0.3881">
        <ele>199</ele>
        <time>2023-09-20T16:09:08Z</time>
      </trkpt>
      <trkpt lat="48.56161" lon="-0.38593">
        <ele>206</ele>
        <time>2023-09-20T16:09:46Z</time>
      </trkpt>
      <trkpt lat="48.55117" lon="-0.36707">
        <ele>195</ele>
        <time>2023-09-20T16:14:35Z</time>
      </trkpt>
      <trkpt lat="48.54833" lon="-0.36742">
        <ele>211</ele>
        <time>2023-09-20T16:15:26Z</time>
      </trkpt>
      <trkpt lat="48.54581" lon="-0.35778">
        <ele>182</ele>
        <time>2023-09-20T16:17:28Z</time>
      </trkpt>
      <trkpt lat="48.54494" lon="-0.35796">
        <ele>183</ele>
        <time>2023-09-20T16:17:44Z</time>
      </trkpt>
      <trkpt lat="48.54381" lon="-0.35899">
        <ele>186</ele>
        <time>2023-09-20T16:18:07Z</time>
      </trkpt>
      <trkpt lat="48.54282" lon="-0.36041">
        <ele>185</ele>
        <time>2023-09-20T16:18:31Z</time>
      </trkpt>
      <trkpt lat="48.54183" lon="-0.3624">
        <ele>187</ele>
        <time>2023-09-20T16:19:01Z</time>
      </trkpt>
      <trkpt lat="48.54081" lon="-0.36169">
        <ele>178</ele>
        <time>2023-09-20T16:19:21Z</time>
      </trkpt>
      <trkpt lat="48.5402" lon="-0.36198">
        <ele>180</ele>
        <time>2023-09-20T16:19:32Z</time>
      </trkpt>
      <trkpt lat="48.53907" lon="-0.36123">
        <ele>176</ele>
        <time>2023-09-20T16:19:54Z</time>
      </trkpt>
      <trkpt lat="48.53883" lon="-0.35941">
        <ele>182</ele>
        <time>2023-09-20T16:20:16Z</time>
      </trkpt>
      <trkpt lat="48.54032" lon="-0.35892">
        <ele>174</ele>
        <time>2023-09-20T16:20:43Z</time>
      </trkpt>
      <trkpt lat="48.53992" lon="-0.35763">
        <ele>181</ele>
        <time>2023-09-20T16:21:00Z</time>
      </trkpt>
      <trkpt lat="48.5394" lon="-0.35614">
        <ele>194</ele>
        <time>2023-09-20T16:21:20Z</time>
      </trkpt>
      <trkpt lat="48.53817" lon="-0.35564">
        <ele>206</ele>
        <time>2023-09-20T16:21:42Z</time>
      </trkpt>
      <trkpt lat="48.53624" lon="-0.35233">
        <ele>213</ele>
        <time>2023-09-20T16:22:34Z</time>
      </trkpt>
      <trkpt lat="48.53339" lon="-0.345">
        <ele>224</ele>
        <time>2023-09-20T16:24:14Z</time>
      </trkpt>
      <trkpt lat="48.53412" lon="-0.33834">
        <ele>188</ele>
        <time>2023-09-20T16:25:34Z</time>
      </trkpt>
      <trkpt lat="48.53532" lon="-0.33169">
        <ele>218</ele>
        <time>2023-09-20T16:26:55Z</time>
      </trkpt>
      <trkpt lat="48.53417" lon="-0.33009">
        <ele>213</ele>
        <time>2023-09-20T16:27:23Z</time>
      </trkpt>
      <trkpt lat="48.53311" lon="-0.3272">
        <ele>204</ele>
        <time>2023-09-20T16:28:02Z</time>
      </trkpt>
      <trkpt lat="48.5336" lon="-0.32578">
        <ele>202</ele>
        <time>2023-09-20T16:28:21Z</time>
      </trkpt>
      <trkpt lat="48.53363" lon="-0.3213">
        <ele>198</ele>
        <time>2023-09-20T16:29:14Z</time>
      </trkpt>
      <trkpt lat="48.53627" lon="-0.3187">
        <ele>191</ele>
        <time>2023-09-20T16:30:10Z</time>
      </trkpt>
      <trkpt lat="48.53681" lon="-0.31639">
        <ele>184</ele>
        <time>2023-09-20T16:30:39Z</time>
      </trkpt>
      <trkpt lat="48.53912" lon="-0.31204">
        <ele>184</ele>
        <time>2023-09-20T16:31:44Z</time>
      </trkpt>
      <trkpt lat="48.53954" lon="-0.31023">
        <ele>188</ele>
        <time>2023-09-20T16:32:07Z</time>
      </trkpt>
      <trkpt lat="48.54046" lon="-0.30756">
        <ele>187</ele>
        <time>2023-09-20T16:32:42Z</time>
      </trkpt>
      <trkpt lat="48.54157" lon="-0.30521">
        <ele>185</ele>
        <time>2023-09-20T16:33:16Z</time>
      </trkpt>
      <trkpt lat="48.5419" lon="-0.30154">
        <ele>191</ele>
        <time>2023-09-20T16:34:00Z</time>
      </trkpt>
      <trkpt lat="48.54027" lon="-0.3003">
        <ele>188</ele>
        <time>2023-09-20T16:34:32Z</time>
      </trkpt>
      <trkpt lat="48.53883" lon="-0.30133">
        <ele>186</ele>
        <time>2023-09-20T16:35:01Z</time>
      </trkpt>
      <trkpt lat="48.53754" lon="-0.30151">
        <ele>186</ele>
        <time>2023-09-20T16:35:24Z</time>
      </trkpt>
      <trkpt lat="48.53697" lon="-0.3029">
        <ele>196</ele>
        <time>2023-09-20T16:35:43Z</time>
      </trkpt>
      <trkpt lat="48.53669" lon="-0.30386">
        <ele>200</ele>
        <time>2023-09-20T16:35:55Z</time>
      </trkpt>
      <trkpt lat="48.53641" lon="-0.30802">
        <ele>197</ele>
        <time>2023-09-20T16:36:45Z</time>
      </trkpt>
      <trkpt lat="48.53497" lon="-0.31204">
        <ele>209</ele>
        <time>2023-09-20T16:37:39Z</time>
      </trkpt>
      <trkpt lat="48.53167" lon="-0.31688">
        <ele>218</ele>
        <time>2023-09-20T16:39:00Z</time>
      </trkpt>
      <trkpt lat="48.53068" lon="-0.31792">
        <ele>216</ele>
        <time>2023-09-20T16:39:22Z</time>
      </trkpt>
      <trkpt lat="48.52985" lon="-0.32258">
        <ele>205</ele>
        <time>2023-09-20T16:40:19Z</time>
      </trkpt>
      <trkpt lat="48.52886" lon="-0.32283">
        <ele>195</ele>
        <time>2023-09-20T16:40:37Z</time>
      </trkpt>
      <trkpt lat="48.52828" lon="-0.32165">
        <ele>195</ele>
        <time>2023-09-20T16:40:54Z</time>
      </trkpt>
      <trkpt lat="48.5241" lon="-0.3235">
        <ele>214</ele>
        <time>2023-09-20T16:42:11Z</time>
      </trkpt>
      <trkpt lat="48.52356" lon="-0.32393">
        <ele>213</ele>
        <time>2023-09-20T16:42:22Z</time>
      </trkpt>
      <trkpt lat="48.52472" lon="-0.33336">
        <ele>213</ele>
        <time>2023-09-20T16:44:15Z</time>
      </trkpt>
      <trkpt lat="48.52618" lon="-0.3387">
        <ele>203</ele>
        <time>2023-09-20T16:45:23Z</time>
      </trkpt>
      <trkpt lat="48.52681" lon="-0.33923">
        <ele>198</ele>
        <time>2023-09-20T16:45:36Z</time>
      </trkpt>
      <trkpt lat="48.52759" lon="-0.33963">
        <ele>186</ele>
        <time>2023-09-20T16:45:51Z</time>
      </trkpt>
      <trkpt lat="48.52839" lon="-0.33984">
        <ele>175</ele>
        <time>2023-09-20T16:46:05Z</time>
      </trkpt>
      <trkpt lat="48.52898" lon="-0.34326">
        <ele>181</ele>
        <time>2023-09-20T16:46:47Z</time>
      </trkpt>
      <trkpt lat="48.52863" lon="-0.34468">
        <ele>181</ele>
        <time>2023-09-20T16:47:05Z</time>
      </trkpt>
      <trkpt lat="48.52773" lon="-0.34653">
        <ele>169</ele>
        <time>2023-09-20T16:47:32Z</time>
      </trkpt>
      <trkpt lat="48.52769" lon="-0.34842">
        <ele>167</ele>
        <time>2023-09-20T16:47:54Z</time>
      </trkpt>
      <trkpt lat="48.52823" lon="-0.35002">
        <ele>170</ele>
        <time>2023-09-20T16:48:15Z</time>
      </trkpt>
      <trkpt lat="48.52839" lon="-0.35183">
        <ele>168</ele>
        <time>2023-09-20T16:48:37Z</time>
      </trkpt>
      <trkpt lat="48.52905" lon="-0.3529">
        <ele>170</ele>
        <time>2023-09-20T16:48:54Z</time>
      </trkpt>
      <trkpt lat="48.5307" lon="-0.35425">
        <ele>170</ele>
        <time>2023-09-20T16:49:27Z</time>
      </trkpt>
      <trkpt lat="48.53205" lon="-0.35621">
        <ele>172</ele>
        <time>2023-09-20T16:50:01Z</time>
      </trkpt>
      <trkpt lat="48.53308" lon="-0.35831">
        <ele>172</ele>
        <time>2023-09-20T16:50:32Z</time>
      </trkpt>
      <trkpt lat="48.53391" lon="-0.36059">
        <ele>173</ele>
        <time>2023-09-20T16:51:02Z</time>
      </trkpt>
      <trkpt lat="48.53492" lon="-0.36269">
        <ele>172</ele>
        <time>2023-09-20T16:51:33Z</time>
      </trkpt>
      <trkpt lat="48.53572" lon="-0.36269">
        <ele>176</ele>
        <time>2023-09-20T16:51:47Z</time>
      </trkpt>
      <trkpt lat="48.53716" lon="-0.36166">
        <ele>176</ele>
        <time>2023-09-20T16:52:15Z</time>
      </trkpt>
      <trkpt lat="48.53867" lon="-0.35959">
        <ele>182</ele>
        <time>2023-09-20T16:52:52Z</time>
      </trkpt>
      <trkpt lat="48.53895" lon="-0.3613">
        <ele>177</ele>
        <time>2023-09-20T16:53:12Z</time>
      </trkpt>
      <trkpt lat="48.53992" lon="-0.36223">
        <ele>182</ele>
        <time>2023-09-20T16:53:33Z</time>
      </trkpt>
      <trkpt lat="48.54034" lon="-0.36304">
        <ele>185</ele>
        <time>2023-09-20T16:53:45Z</time>
      </trkpt>
      <trkpt lat="48.53841" lon="-0.36475">
        <ele>208</ele>
        <time>2023-09-20T16:54:25Z</time>
      </trkpt>
      <trkpt lat="48.53813" lon="-0.3655">
        <ele>209</ele>
        <time>2023-09-20T16:54:35Z</time>
      </trkpt>
      <trkpt lat="48.53799" lon="-0.36714">
        <ele>214</ele>
        <time>2023-09-20T16:54:54Z</time>
      </trkpt>
      <trkpt lat="48.53832" lon="-0.36938">
        <ele>213</ele>
        <time>2023-09-20T16:55:21Z</time>
      </trkpt>
      <trkpt lat="48.539" lon="-0.37152">
        <ele>214</ele>
        <time>2023-09-20T16:55:49Z</time>
      </trkpt>
      <trkpt lat="48.53987" lon="-0.37319">
        <ele>212</ele>
        <time>2023-09-20T16:56:14Z</time>
      </trkpt>
      <trkpt lat="48.54079" lon="-0.37511">
        <ele>212</ele>
        <time>2023-09-20T16:56:42Z</time>
      </trkpt>
      <trkpt lat="48.54204" lon="-0.37757">
        <ele>212</ele>
        <time>2023-09-20T16:57:19Z</time>
      </trkpt>
      <trkpt lat="48.54289" lon="-0.37895">
        <ele>212</ele>
        <time>2023-09-20T16:57:41Z</time>
      </trkpt>
      <trkpt lat="48.5435" lon="-0.37892">
        <ele>213</ele>
        <time>2023-09-20T16:57:52Z</time>
      </trkpt>
      <trkpt lat="48.54383" lon="-0.37963">
        <ele>213</ele>
        <time>2023-09-20T16:58:02Z</time>
      </trkpt>
      <trkpt lat="48.54423" lon="-0.38052">
        <ele>211</ele>
        <time>2023-09-20T16:58:15Z</time>
      </trkpt>
      <trkpt lat="48.54491" lon="-0.38198">
        <ele>210</ele>
        <time>2023-09-20T16:58:36Z</time>
      </trkpt>
      <trkpt lat="48.54571" lon="-0.38376">
        <ele>212</ele>
        <time>2023-09-20T16:59:01Z</time>
      </trkpt>
      <trkpt lat="48.54623" lon="-0.38515">
        <ele>213</ele>
        <time>2023-09-20T16:59:20Z</time>
      </trkpt>
      <trkpt lat="48.54725" lon="-0.38814">
        <ele>215</ele>
        <time>2023-09-20T17:00:00Z</time>
      </trkpt>
      <trkpt lat="48.5485" lon="-0.39038">
        <ele>214</ele>
        <time>2023-09-20T17:00:34Z</time>
      </trkpt>
      <trkpt lat="48.54948" lon="-0.3933">
        <ele>216</ele>
        <time>2023-09-20T17:01:13Z</time>
      </trkpt>
      <trkpt lat="48.5497" lon="-0.39479">
        <ele>215</ele>
        <time>2023-09-20T17:01:31Z</time>
      </trkpt>
      <trkpt lat="48.54922" lon="-0.39529">
        <ele>212</ele>
        <time>2023-09-20T17:01:41Z</time>
      </trkpt>
      <trkpt lat="48.54977" lon="-0.39725">
        <ele>213</ele>
        <time>2023-09-20T17:02:06Z</time>
      </trkpt>
      <trkpt lat="48.54899" lon="-0.39767">
        <ele>208</ele>
        <time>2023-09-20T17:02:21Z</time>
      </trkpt>
      <trkpt lat="48.54939" lon="-0.39892">
        <ele>209</ele>
        <time>2023-09-20T17:02:37Z</time>
      </trkpt>
      <trkpt lat="48.5479" lon="-0.40177">
        <ele>186</ele>
        <time>2023-09-20T17:03:20Z</time>
      </trkpt>
      <trkpt lat="48.54708" lon="-0.40294">
        <ele>182</ele>
        <time>2023-09-20T17:03:40Z</time>
      </trkpt>
      <trkpt lat="48.54602" lon="-0.4044">
        <ele>180</ele>
        <time>2023-09-20T17:04:06Z</time>
      </trkpt>
      <trkpt lat="48.54491" lon="-0.40568">
        <ele>172</ele>
        <time>2023-09-20T17:04:30Z</time>
      </trkpt>
      <trkpt lat="48.54352" lon="-0.40675">
        <ele>165</ele>
        <time>2023-09-20T17:04:58Z</time>
      </trkpt>
      <trkpt lat="48.54267" lon="-0.40824">
        <ele>164</ele>
        <time>2023-09-20T17:05:21Z</time>
      </trkpt>
      <trkpt lat="48.5423" lon="-0.40956">
        <ele>163</ele>
        <time>2023-09-20T17:05:38Z</time>
      </trkpt>
      <trkpt lat="48.54179" lon="-0.41046">
        <ele>163</ele>
        <time>2023-09-20T17:05:52Z</time>
      </trkpt>
      <trkpt lat="48.54095" lon="-0.41139">
        <ele>161</ele>
        <time>2023-09-20T17:06:11Z</time>
      </trkpt>
      <trkpt lat="48.54007" lon="-0.41158">
        <ele>159</ele>
        <time>2023-09-20T17:06:27Z</time>
      </trkpt>
      <trkpt lat="48.53903" lon="-0.41134">
        <ele>159</ele>
        <time>2023-09-20T17:06:45Z</time>
      </trkpt>
      <trkpt lat="48.53894" lon="-0.41197">
        <ele>158</ele>
        <time>2023-09-20T17:06:53Z</time>
      </trkpt>
      <trkpt lat="48.53908" lon="-0.41334">
        <ele>156</ele>
        <time>2023-09-20T17:07:09Z</time>
      </trkpt>
      <trkpt lat="48.53966" lon="-0.41403">
        <ele>153</ele>
        <time>2023-09-20T17:07:22Z</time>
      </trkpt>
      <trkpt lat="48.54027" lon="-0.41495">
        <ele>148</ele>
        <time>2023-09-20T17:07:38Z</time>
      </trkpt>
      <trkpt lat="48.54056" lon="-0.41527">
        <ele>148</ele>
        <time>2023-09-20T17:07:44Z</time>
      </trkpt>
      <trkpt lat="48.54129" lon="-0.41503">
        <ele>148</ele>
        <time>2023-09-20T17:07:57Z</time>
      </trkpt>
      <trkpt lat="48.54209" lon="-0.41514">
        <ele>149</ele>
        <time>2023-09-20T17:08:12Z</time>
      </trkpt>
      <trkpt lat="48.54269" lon="-0.41566">
        <ele>151</ele>
        <time>2023-09-20T17:08:24Z</time>
      </trkpt>
      <trkpt lat="48.54348" lon="-0.4163">
        <ele>153</ele>
        <time>2023-09-20T17:08:40Z</time>
      </trkpt>
      <trkpt lat="48.54449" lon="-0.41671">
        <ele>157</ele>
        <time>2023-09-20T17:08:58Z</time>
      </trkpt>
      <trkpt lat="48.54441" lon="-0.41774">
        <ele>155</ele>
        <time>2023-09-20T17:09:11Z</time>
      </trkpt>
      <trkpt lat="48.545" lon="-0.41868">
        <ele>158</ele>
        <time>2023-09-20T17:09:26Z</time>
      </trkpt>
      <trkpt lat="48.54524" lon="-0.42009">
        <ele>157</ele>
        <time>2023-09-20T17:09:43Z</time>
      </trkpt>
      <trkpt lat="48.54638" lon="-0.4203">
        <ele>159</ele>
        <time>2023-09-20T17:10:04Z</time>
      </trkpt>
      <trkpt lat="48.54779" lon="-0.42011">
        <ele>161</ele>
        <time>2023-09-20T17:10:29Z</time>
      </trkpt>
    </trkseg>
  </trk>
</gpx>